sensor_id;sensor_type;location;lat;lon;timestamp;temperature;humidity
19007;DHT22;9636;47.382;8.480;2024-01-30T00:00:49;4.10;99.90
19007;DHT22;9636;47.382;8.480;2024-01-30T00:03:16;3.90;99.90
19007;DHT22;9636;47.382;8.480;2024-01-30T00:05:42;3.80;99.90
19007;DHT22;9636;47.382;8.480;2024-01-30T00:08:10;3.80;99.90
19007;DHT22;9636;47.382;8.480;2024-01-30T00:10:37;3.70;99.90
19007;DHT22;9636;47.382;8.480;2024-01-30T00:13:04;3.50;99.90
19007;DHT22;9636;47.382;8.480;2024-01-30T00:15:30;3.50;99.90
19007;DHT22;9636;47.382;8.480;2024-01-30T00:17:57;3.50;99.90
19007;DHT22;9636;47.382;8.480;2024-01-30T00:20:23;3.50;99.90
19007;DHT22;9636;47.382;8.480;2024-01-30T00:22:50;3.40;99.90
19007;DHT22;9636;47.382;8.480;2024-01-30T00:25:18;3.30;99.90
19007;DHT22;9636;47.382;8.480;2024-01-30T00:27:45;3.30;99.90
19007;DHT22;9636;47.382;8.480;2024-01-30T00:30:12;3.10;99.90
19007;DHT22;9636;47.382;8.480;2024-01-30T00:32:38;3.10;99.90
19007;DHT22;9636;47.382;8.480;2024-01-30T00:35:05;3.60;99.90
19007;DHT22;9636;47.382;8.480;2024-01-30T00:37:32;3.90;99.90
19007;DHT22;9636;47.382;8.480;2024-01-30T00:39:58;3.90;99.90
19007;DHT22;9636;47.382;8.480;2024-01-30T00:42:26;3.70;99.90
19007;DHT22;9636;47.382;8.480;2024-01-30T00:44:53;3.50;99.90
19007;DHT22;9636;47.382;8.480;2024-01-30T00:47:20;3.30;99.90
19007;DHT22;9636;47.382;8.480;2024-01-30T00:49:46;3.30;99.90
19007;DHT22;9636;47.382;8.480;2024-01-30T00:52:13;3.00;99.90
19007;DHT22;9636;47.382;8.480;2024-01-30T00:54:39;2.80;99.90
19007;DHT22;9636;47.382;8.480;2024-01-30T00:57:06;2.80;99.90
19007;DHT22;9636;47.382;8.480;2024-01-30T00:59:34;3.00;99.90
19007;DHT22;9636;47.382;8.480;2024-01-30T01:02:01;2.90;99.90
19007;DHT22;9636;47.382;8.480;2024-01-30T01:04:28;3.20;99.90
19007;DHT22;9636;47.382;8.480;2024-01-30T01:06:54;3.10;99.90
19007;DHT22;9636;47.382;8.480;2024-01-30T01:09:21;3.40;99.90
19007;DHT22;9636;47.382;8.480;2024-01-30T01:11:47;3.20;99.90
19007;DHT22;9636;47.382;8.480;2024-01-30T01:14:14;3.10;99.90
19007;DHT22;9636;47.382;8.480;2024-01-30T01:16:42;2.90;99.90
19007;DHT22;9636;47.382;8.480;2024-01-30T01:19:09;2.90;99.90
19007;DHT22;9636;47.382;8.480;2024-01-30T01:21:35;3.10;99.90
19007;DHT22;9636;47.382;8.480;2024-01-30T01:24:03;3.00;99.90
19007;DHT22;9636;47.382;8.480;2024-01-30T01:26:29;3.00;99.90
19007;DHT22;9636;47.382;8.480;2024-01-30T01:28:56;3.00;99.90
19007;DHT22;9636;47.382;8.480;2024-01-30T01:31:22;3.30;99.90
19007;DHT22;9636;47.382;8.480;2024-01-30T01:33:51;3.60;99.90
19007;DHT22;9636;47.382;8.480;2024-01-30T01:36:18;3.50;99.90
19007;DHT22;9636;47.382;8.480;2024-01-30T01:38:44;3.20;99.90
19007;DHT22;9636;47.382;8.480;2024-01-30T01:41:11;3.00;99.90
19007;DHT22;9636;47.382;8.480;2024-01-30T01:43:37;3.30;99.90
19007;DHT22;9636;47.382;8.480;2024-01-30T01:46:04;3.10;99.90
19007;DHT22;9636;47.382;8.480;2024-01-30T01:48:31;3.30;99.90
19007;DHT22;9636;47.382;8.480;2024-01-30T01:50:59;3.20;99.90
19007;DHT22;9636;47.382;8.480;2024-01-30T01:53:26;2.80;99.90
19007;DHT22;9636;47.382;8.480;2024-01-30T01:55:53;2.90;99.90
19007;DHT22;9636;47.382;8.480;2024-01-30T01:58:20;3.20;99.90
19007;DHT22;9636;47.382;8.480;2024-01-30T02:00:47;3.40;99.90
19007;DHT22;9636;47.382;8.480;2024-01-30T02:03:14;3.60;99.90
19007;DHT22;9636;47.382;8.480;2024-01-30T02:05:42;3.50;99.90
19007;DHT22;9636;47.382;8.480;2024-01-30T02:08:10;3.40;99.90
19007;DHT22;9636;47.382;8.480;2024-01-30T02:10:36;3.70;99.90
19007;DHT22;9636;47.382;8.480;2024-01-30T02:13:03;3.30;99.90
19007;DHT22;9636;47.382;8.480;2024-01-30T02:15:30;2.90;99.90
19007;DHT22;9636;47.382;8.480;2024-01-30T02:17:56;2.80;99.90
19007;DHT22;9636;47.382;8.480;2024-01-30T02:20:23;2.60;99.90
19007;DHT22;9636;47.382;8.480;2024-01-30T02:22:52;2.60;99.90
19007;DHT22;9636;47.382;8.480;2024-01-30T02:25:20;2.60;99.90
19007;DHT22;9636;47.382;8.480;2024-01-30T02:27:48;2.70;99.90
19007;DHT22;9636;47.382;8.480;2024-01-30T02:30:14;2.90;99.90
19007;DHT22;9636;47.382;8.480;2024-01-30T02:32:41;3.10;99.90
19007;DHT22;9636;47.382;8.480;2024-01-30T02:35:07;2.90;99.90
19007;DHT22;9636;47.382;8.480;2024-01-30T02:37:34;3.00;99.90
19007;DHT22;9636;47.382;8.480;2024-01-30T02:40:02;2.80;99.90
19007;DHT22;9636;47.382;8.480;2024-01-30T02:42:29;2.90;99.90
19007;DHT22;9636;47.382;8.480;2024-01-30T02:44:55;3.00;99.90
19007;DHT22;9636;47.382;8.480;2024-01-30T02:47:22;3.10;99.90
19007;DHT22;9636;47.382;8.480;2024-01-30T02:49:49;3.10;99.90
19007;DHT22;9636;47.382;8.480;2024-01-30T02:52:15;2.90;99.90
19007;DHT22;9636;47.382;8.480;2024-01-30T02:54:42;2.60;99.90
19007;DHT22;9636;47.382;8.480;2024-01-30T02:57:10;2.40;99.90
19007;DHT22;9636;47.382;8.480;2024-01-30T02:59:36;2.60;99.90
19007;DHT22;9636;47.382;8.480;2024-01-30T03:02:03;2.70;99.90
19007;DHT22;9636;47.382;8.480;2024-01-30T03:04:30;2.80;99.90
19007;DHT22;9636;47.382;8.480;2024-01-30T03:06:57;2.70;99.90
19007;DHT22;9636;47.382;8.480;2024-01-30T03:09:23;2.60;99.90
19007;DHT22;9636;47.382;8.480;2024-01-30T03:11:50;2.90;99.90
19007;DHT22;9636;47.382;8.480;2024-01-30T03:14:18;2.90;99.90
19007;DHT22;9636;47.382;8.480;2024-01-30T03:16:44;3.10;99.90
19007;DHT22;9636;47.382;8.480;2024-01-30T03:19:11;3.10;99.90
19007;DHT22;9636;47.382;8.480;2024-01-30T03:21:38;2.90;99.90
19007;DHT22;9636;47.382;8.480;2024-01-30T03:24:04;3.00;99.90
19007;DHT22;9636;47.382;8.480;2024-01-30T03:26:31;2.80;99.90
19007;DHT22;9636;47.382;8.480;2024-01-30T03:28:58;2.90;99.90
19007;DHT22;9636;47.382;8.480;2024-01-30T03:31:26;2.50;99.90
19007;DHT22;9636;47.382;8.480;2024-01-30T03:33:52;2.20;99.90
19007;DHT22;9636;47.382;8.480;2024-01-30T03:36:19;2.60;99.90
19007;DHT22;9636;47.382;8.480;2024-01-30T03:38:46;2.60;99.90
19007;DHT22;9636;47.382;8.480;2024-01-30T03:41:12;2.60;99.90
19007;DHT22;9636;47.382;8.480;2024-01-30T03:43:39;2.70;99.90
19007;DHT22;9636;47.382;8.480;2024-01-30T03:46:06;3.00;99.90
19007;DHT22;9636;47.382;8.480;2024-01-30T03:48:34;2.80;99.90
19007;DHT22;9636;47.382;8.480;2024-01-30T03:51:01;2.70;99.90
19007;DHT22;9636;47.382;8.480;2024-01-30T03:53:28;2.80;99.90
19007;DHT22;9636;47.382;8.480;2024-01-30T03:55:54;3.30;99.90
19007;DHT22;9636;47.382;8.480;2024-01-30T03:58:21;3.20;99.90
19007;DHT22;9636;47.382;8.480;2024-01-30T04:00:47;3.20;99.90
19007;DHT22;9636;47.382;8.480;2024-01-30T04:03:14;3.10;99.90
19007;DHT22;9636;47.382;8.480;2024-01-30T04:05:42;2.70;99.90
19007;DHT22;9636;47.382;8.480;2024-01-30T04:08:09;2.40;99.90
19007;DHT22;9636;47.382;8.480;2024-01-30T04:10:35;2.60;99.90
19007;DHT22;9636;47.382;8.480;2024-01-30T04:13:02;2.60;99.90
19007;DHT22;9636;47.382;8.480;2024-01-30T04:15:29;2.50;99.90
19007;DHT22;9636;47.382;8.480;2024-01-30T04:17:57;2.50;99.90
19007;DHT22;9636;47.382;8.480;2024-01-30T04:20:24;2.90;99.90
19007;DHT22;9636;47.382;8.480;2024-01-30T04:22:52;2.90;99.90
19007;DHT22;9636;47.382;8.480;2024-01-30T04:25:18;2.70;99.90
19007;DHT22;9636;47.382;8.480;2024-01-30T04:27:45;2.60;99.90
19007;DHT22;9636;47.382;8.480;2024-01-30T04:30:12;2.30;99.90
19007;DHT22;9636;47.382;8.480;2024-01-30T04:32:39;2.50;99.90
19007;DHT22;9636;47.382;8.480;2024-01-30T04:35:06;2.60;99.90
19007;DHT22;9636;47.382;8.480;2024-01-30T04:37:32;2.80;99.90
19007;DHT22;9636;47.382;8.480;2024-01-30T04:40:00;2.80;99.90
19007;DHT22;9636;47.382;8.480;2024-01-30T04:42:28;2.70;99.90
19007;DHT22;9636;47.382;8.480;2024-01-30T04:44:55;2.60;99.90
19007;DHT22;9636;47.382;8.480;2024-01-30T04:47:21;2.40;99.90
19007;DHT22;9636;47.382;8.480;2024-01-30T04:49:48;2.90;99.90
19007;DHT22;9636;47.382;8.480;2024-01-30T04:52:15;2.60;99.90
19007;DHT22;9636;47.382;8.480;2024-01-30T04:54:42;2.20;99.90
19007;DHT22;9636;47.382;8.480;2024-01-30T04:57:10;2.40;99.90
19007;DHT22;9636;47.382;8.480;2024-01-30T04:59:37;2.20;99.90
19007;DHT22;9636;47.382;8.480;2024-01-30T05:02:04;2.20;99.90
19007;DHT22;9636;47.382;8.480;2024-01-30T05:04:31;2.40;99.90
19007;DHT22;9636;47.382;8.480;2024-01-30T05:06:57;2.60;99.90
19007;DHT22;9636;47.382;8.480;2024-01-30T05:09:24;2.70;99.90
19007;DHT22;9636;47.382;8.480;2024-01-30T05:11:51;2.80;99.90
19007;DHT22;9636;47.382;8.480;2024-01-30T05:14:19;2.70;99.90
19007;DHT22;9636;47.382;8.480;2024-01-30T05:16:45;2.80;99.90
19007;DHT22;9636;47.382;8.480;2024-01-30T05:19:13;2.60;99.90
19007;DHT22;9636;47.382;8.480;2024-01-30T05:21:39;2.20;99.90
19007;DHT22;9636;47.382;8.480;2024-01-30T05:24:06;2.20;99.90
19007;DHT22;9636;47.382;8.480;2024-01-30T05:26:35;2.10;99.90
19007;DHT22;9636;47.382;8.480;2024-01-30T05:29:01;2.00;99.90
19007;DHT22;9636;47.382;8.480;2024-01-30T05:31:29;2.00;99.90
19007;DHT22;9636;47.382;8.480;2024-01-30T05:33:56;2.40;99.90
19007;DHT22;9636;47.382;8.480;2024-01-30T05:36:22;2.40;99.90
19007;DHT22;9636;47.382;8.480;2024-01-30T05:38:49;2.40;99.90
19007;DHT22;9636;47.382;8.480;2024-01-30T05:41:16;2.60;99.90
19007;DHT22;9636;47.382;8.480;2024-01-30T05:43:42;2.70;99.90
19007;DHT22;9636;47.382;8.480;2024-01-30T05:46:09;2.60;99.90
19007;DHT22;9636;47.382;8.480;2024-01-30T05:48:37;2.70;99.90
19007;DHT22;9636;47.382;8.480;2024-01-30T05:51:04;2.30;99.90
19007;DHT22;9636;47.382;8.480;2024-01-30T05:53:31;2.60;99.90
19007;DHT22;9636;47.382;8.480;2024-01-30T05:55:57;2.50;99.90
19007;DHT22;9636;47.382;8.480;2024-01-30T05:58:24;2.70;99.90
19007;DHT22;9636;47.382;8.480;2024-01-30T06:00:50;2.40;99.90
19007;DHT22;9636;47.382;8.480;2024-01-30T06:03:17;2.70;99.90
19007;DHT22;9636;47.382;8.480;2024-01-30T06:05:45;2.30;99.90
19007;DHT22;9636;47.382;8.480;2024-01-30T06:08:12;2.00;99.90
19007;DHT22;9636;47.382;8.480;2024-01-30T06:10:38;1.80;99.90
19007;DHT22;9636;47.382;8.480;2024-01-30T06:13:05;1.60;99.90
19007;DHT22;9636;47.382;8.480;2024-01-30T06:15:32;1.40;99.90
19007;DHT22;9636;47.382;8.480;2024-01-30T06:17:59;1.40;99.90
19007;DHT22;9636;47.382;8.480;2024-01-30T06:20:25;1.60;99.90
19007;DHT22;9636;47.382;8.480;2024-01-30T06:22:53;1.60;99.90
19007;DHT22;9636;47.382;8.480;2024-01-30T06:25:20;1.70;99.90
19007;DHT22;9636;47.382;8.480;2024-01-30T06:27:46;2.10;99.90
19007;DHT22;9636;47.382;8.480;2024-01-30T06:30:13;2.30;99.90
19007;DHT22;9636;47.382;8.480;2024-01-30T06:32:40;2.30;99.90
19007;DHT22;9636;47.382;8.480;2024-01-30T06:35:07;2.20;99.90
19007;DHT22;9636;47.382;8.480;2024-01-30T06:37:35;2.00;99.90
19007;DHT22;9636;47.382;8.480;2024-01-30T06:40:04;2.00;99.90
19007;DHT22;9636;47.382;8.480;2024-01-30T06:42:31;2.20;99.90
19007;DHT22;9636;47.382;8.480;2024-01-30T06:44:58;2.10;99.90
19007;DHT22;9636;47.382;8.480;2024-01-30T06:47:24;2.40;99.90
19007;DHT22;9636;47.382;8.480;2024-01-30T06:49:51;2.40;99.90
19007;DHT22;9636;47.382;8.480;2024-01-30T06:52:18;2.10;99.90
19007;DHT22;9636;47.382;8.480;2024-01-30T06:54:44;2.10;99.90
19007;DHT22;9636;47.382;8.480;2024-01-30T06:57:12;1.80;99.90
19007;DHT22;9636;47.382;8.480;2024-01-30T06:59:39;1.80;99.90
19007;DHT22;9636;47.382;8.480;2024-01-30T07:02:08;1.90;99.90
19007;DHT22;9636;47.382;8.480;2024-01-30T07:04:35;1.90;99.90
19007;DHT22;9636;47.382;8.480;2024-01-30T07:07:03;2.00;99.90
19007;DHT22;9636;47.382;8.480;2024-01-30T07:09:30;2.00;99.90
19007;DHT22;9636;47.382;8.480;2024-01-30T07:11:56;1.90;99.90
19007;DHT22;9636;47.382;8.480;2024-01-30T07:14:25;1.90;99.90
19007;DHT22;9636;47.382;8.480;2024-01-30T07:16:52;1.90;99.90
19007;DHT22;9636;47.382;8.480;2024-01-30T07:19:19;2.10;99.90
19007;DHT22;9636;47.382;8.480;2024-01-30T07:21:45;2.30;99.90
19007;DHT22;9636;47.382;8.480;2024-01-30T07:24:12;2.30;99.90
19007;DHT22;9636;47.382;8.480;2024-01-30T07:26:38;2.40;99.90
19007;DHT22;9636;47.382;8.480;2024-01-30T07:29:05;2.40;99.90
19007;DHT22;9636;47.382;8.480;2024-01-30T07:31:33;2.30;99.90
19007;DHT22;9636;47.382;8.480;2024-01-30T07:33:59;2.30;99.90
19007;DHT22;9636;47.382;8.480;2024-01-30T07:36:26;2.10;99.90
19007;DHT22;9636;47.382;8.480;2024-01-30T07:38:53;2.30;99.90
19007;DHT22;9636;47.382;8.480;2024-01-30T07:41:20;2.10;99.90
19007;DHT22;9636;47.382;8.480;2024-01-30T07:43:46;2.20;99.90
19007;DHT22;9636;47.382;8.480;2024-01-30T07:46:13;2.40;99.90
19007;DHT22;9636;47.382;8.480;2024-01-30T07:48:41;2.60;99.90
19007;DHT22;9636;47.382;8.480;2024-01-30T07:51:07;2.50;99.90
19007;DHT22;9636;47.382;8.480;2024-01-30T07:53:34;2.20;99.90
19007;DHT22;9636;47.382;8.480;2024-01-30T07:56:01;2.10;99.90
19007;DHT22;9636;47.382;8.480;2024-01-30T07:58:28;2.10;99.90
19007;DHT22;9636;47.382;8.480;2024-01-30T08:00:54;2.00;99.90
19007;DHT22;9636;47.382;8.480;2024-01-30T08:03:23;2.00;99.90
19007;DHT22;9636;47.382;8.480;2024-01-30T08:05:51;2.20;99.90
19007;DHT22;9636;47.382;8.480;2024-01-30T08:08:17;2.40;99.90
19007;DHT22;9636;47.382;8.480;2024-01-30T08:10:44;2.70;99.90
19007;DHT22;9636;47.382;8.480;2024-01-30T08:13:11;2.80;99.90
19007;DHT22;9636;47.382;8.480;2024-01-30T08:15:37;3.20;99.90
19007;DHT22;9636;47.382;8.480;2024-01-30T08:18:04;3.30;99.90
19007;DHT22;9636;47.382;8.480;2024-01-30T08:20:32;3.60;99.90
19007;DHT22;9636;47.382;8.480;2024-01-30T08:23:00;3.50;99.90
19007;DHT22;9636;47.382;8.480;2024-01-30T08:25:26;3.40;99.90
19007;DHT22;9636;47.382;8.480;2024-01-30T08:27:53;3.70;99.90
19007;DHT22;9636;47.382;8.480;2024-01-30T08:30:20;3.60;99.90
19007;DHT22;9636;47.382;8.480;2024-01-30T08:32:46;3.60;99.90
19007;DHT22;9636;47.382;8.480;2024-01-30T08:35:13;3.50;99.90
19007;DHT22;9636;47.382;8.480;2024-01-30T08:37:41;3.50;99.90
19007;DHT22;9636;47.382;8.480;2024-01-30T08:40:09;3.40;99.90
19007;DHT22;9636;47.382;8.480;2024-01-30T08:42:36;3.50;99.90
19007;DHT22;9636;47.382;8.480;2024-01-30T08:45:03;3.50;99.90
19007;DHT22;9636;47.382;8.480;2024-01-30T08:47:30;3.60;99.90
19007;DHT22;9636;47.382;8.480;2024-01-30T08:49:58;3.70;99.90
19007;DHT22;9636;47.382;8.480;2024-01-30T08:52:25;3.60;99.90
19007;DHT22;9636;47.382;8.480;2024-01-30T08:54:52;3.70;99.90
19007;DHT22;9636;47.382;8.480;2024-01-30T08:57:20;3.70;99.90
19007;DHT22;9636;47.382;8.480;2024-01-30T08:59:46;3.80;99.90
19007;DHT22;9636;47.382;8.480;2024-01-30T09:02:13;3.80;99.90
19007;DHT22;9636;47.382;8.480;2024-01-30T09:04:41;3.80;99.90
19007;DHT22;9636;47.382;8.480;2024-01-30T09:07:08;3.70;99.90
19007;DHT22;9636;47.382;8.480;2024-01-30T09:09:35;3.70;99.90
19007;DHT22;9636;47.382;8.480;2024-01-30T09:12:02;3.90;99.90
19007;DHT22;9636;47.382;8.480;2024-01-30T09:14:33;4.00;99.90
19007;DHT22;9636;47.382;8.480;2024-01-30T09:17:00;3.90;99.90
19007;DHT22;9636;47.382;8.480;2024-01-30T09:19:28;4.20;99.90
19007;DHT22;9636;47.382;8.480;2024-01-30T09:21:55;4.00;99.90
19007;DHT22;9636;47.382;8.480;2024-01-30T09:24:21;4.10;99.90
19007;DHT22;9636;47.382;8.480;2024-01-30T09:26:48;4.30;99.90
19007;DHT22;9636;47.382;8.480;2024-01-30T09:29:14;4.40;99.90
19007;DHT22;9636;47.382;8.480;2024-01-30T09:31:44;4.40;99.90
19007;DHT22;9636;47.382;8.480;2024-01-30T09:34:10;4.40;99.90
19007;DHT22;9636;47.382;8.480;2024-01-30T09:36:37;4.60;99.90
19007;DHT22;9636;47.382;8.480;2024-01-30T09:39:03;4.60;99.90
19007;DHT22;9636;47.382;8.480;2024-01-30T09:41:31;4.70;99.90
19007;DHT22;9636;47.382;8.480;2024-01-30T09:43:58;4.80;99.90
19007;DHT22;9636;47.382;8.480;2024-01-30T09:58:13;17.60;99.90
19007;DHT22;9636;47.382;8.480;2024-01-30T10:00:40;12.70;99.30
19007;DHT22;9636;47.382;8.480;2024-01-30T10:03:07;9.40;99.90
19007;DHT22;9636;47.382;8.480;2024-01-30T10:05:35;7.90;99.90
19007;DHT22;9636;47.382;8.480;2024-01-30T10:08:06;7.40;99.90
19007;DHT22;9636;47.382;8.480;2024-01-30T10:10:33;6.70;99.90
19007;DHT22;9636;47.382;8.480;2024-01-30T10:13:00;6.40;99.90
19007;DHT22;9636;47.382;8.480;2024-01-30T10:15:29;6.10;99.90
19007;DHT22;9636;47.382;8.480;2024-01-30T10:17:55;6.00;99.90
19007;DHT22;9636;47.382;8.480;2024-01-30T10:20:24;5.80;99.90
19007;DHT22;9636;47.382;8.480;2024-01-30T10:22:51;6.00;99.90
19007;DHT22;9636;47.382;8.480;2024-01-30T10:25:18;6.00;99.90
19007;DHT22;9636;47.382;8.480;2024-01-30T10:27:45;6.00;99.90
19007;DHT22;9636;47.382;8.480;2024-01-30T10:30:12;6.10;99.90
19007;DHT22;9636;47.382;8.480;2024-01-30T10:32:41;6.20;99.90
19007;DHT22;9636;47.382;8.480;2024-01-30T10:35:07;6.40;99.90
19007;DHT22;9636;47.382;8.480;2024-01-30T10:37:34;6.70;99.90
19007;DHT22;9636;47.382;8.480;2024-01-30T10:40:03;7.10;99.90
19007;DHT22;9636;47.382;8.480;2024-01-30T10:42:32;7.90;99.90
19007;DHT22;9636;47.382;8.480;2024-01-30T10:45:02;8.50;99.90
19007;DHT22;9636;47.382;8.480;2024-01-30T10:47:34;9.00;99.90
19007;DHT22;9636;47.382;8.480;2024-01-30T10:50:02;9.50;99.90
19007;DHT22;9636;47.382;8.480;2024-01-30T10:52:30;9.70;99.90
19007;DHT22;9636;47.382;8.480;2024-01-30T10:54:58;9.60;99.90
19007;DHT22;9636;47.382;8.480;2024-01-30T10:57:26;9.70;99.90
19007;DHT22;9636;47.382;8.480;2024-01-30T10:59:56;9.70;99.90
19007;DHT22;9636;47.382;8.480;2024-01-30T11:02:24;9.80;99.90
19007;DHT22;9636;47.382;8.480;2024-01-30T11:04:55;9.90;99.90
19007;DHT22;9636;47.382;8.480;2024-01-30T11:07:26;10.10;99.90
19007;DHT22;9636;47.382;8.480;2024-01-30T11:09:59;10.20;99.90
19007;DHT22;9636;47.382;8.480;2024-01-30T11:12:27;10.80;99.90
19007;DHT22;9636;47.382;8.480;2024-01-30T11:15:05;10.70;99.90
19007;DHT22;9636;47.382;8.480;2024-01-30T11:17:42;10.60;99.90
19007;DHT22;9636;47.382;8.480;2024-01-30T11:20:14;10.50;99.90
19007;DHT22;9636;47.382;8.480;2024-01-30T11:22:56;10.50;99.90
19007;DHT22;9636;47.382;8.480;2024-01-30T11:25:24;10.70;99.90
19007;DHT22;9636;47.382;8.480;2024-01-30T11:27:52;10.70;99.90
19007;DHT22;9636;47.382;8.480;2024-01-30T11:30:24;10.70;99.90
19007;DHT22;9636;47.382;8.480;2024-01-30T11:33:01;11.20;99.90
19007;DHT22;9636;47.382;8.480;2024-01-30T11:35:31;11.50;99.90
19007;DHT22;9636;47.382;8.480;2024-01-30T11:38:00;11.60;99.90
19007;DHT22;9636;47.382;8.480;2024-01-30T11:40:28;11.80;99.90
19007;DHT22;9636;47.382;8.480;2024-01-30T11:42:55;12.10;99.90
19007;DHT22;9636;47.382;8.480;2024-01-30T11:45:22;12.50;99.90
19007;DHT22;9636;47.382;8.480;2024-01-30T11:47:49;12.50;99.90
19007;DHT22;9636;47.382;8.480;2024-01-30T11:50:16;12.60;99.90
19007;DHT22;9636;47.382;8.480;2024-01-30T11:52:43;13.00;99.90
19007;DHT22;9636;47.382;8.480;2024-01-30T11:55:12;12.90;99.90
19007;DHT22;9636;47.382;8.480;2024-01-30T11:57:39;13.50;99.90
19007;DHT22;9636;47.382;8.480;2024-01-30T12:00:14;13.50;99.90
19007;DHT22;9636;47.382;8.480;2024-01-30T12:02:41;14.20;99.90
19007;DHT22;9636;47.382;8.480;2024-01-30T12:05:08;14.10;98.70
19007;DHT22;9636;47.382;8.480;2024-01-30T12:07:36;14.70;99.90
19007;DHT22;9636;47.382;8.480;2024-01-30T12:10:03;14.80;99.30
19007;DHT22;9636;47.382;8.480;2024-01-30T12:12:32;15.20;99.00
19007;DHT22;9636;47.382;8.480;2024-01-30T12:14:59;15.60;99.90
19007;DHT22;9636;47.382;8.480;2024-01-30T12:17:29;15.90;99.00
19007;DHT22;9636;47.382;8.480;2024-01-30T12:20:06;16.30;98.20
19007;DHT22;9636;47.382;8.480;2024-01-30T12:22:35;16.00;97.10
19007;DHT22;9636;47.382;8.480;2024-01-30T12:25:04;16.10;97.20
19007;DHT22;9636;47.382;8.480;2024-01-30T12:27:33;15.90;96.30
19007;DHT22;9636;47.382;8.480;2024-01-30T12:30:00;15.80;97.30
19007;DHT22;9636;47.382;8.480;2024-01-30T12:32:28;15.30;96.80
19007;DHT22;9636;47.382;8.480;2024-01-30T12:34:55;15.20;98.40
19007;DHT22;9636;47.382;8.480;2024-01-30T12:37:22;15.20;97.00
19007;DHT22;9636;47.382;8.480;2024-01-30T12:39:51;15.50;98.00
19007;DHT22;9636;47.382;8.480;2024-01-30T12:42:19;16.00;97.00
19007;DHT22;9636;47.382;8.480;2024-01-30T12:44:48;16.60;97.10
19007;DHT22;9636;47.382;8.480;2024-01-30T12:47:15;16.90;97.30
19007;DHT22;9636;47.382;8.480;2024-01-30T12:49:42;17.30;96.10
19007;DHT22;9636;47.382;8.480;2024-01-30T12:52:09;17.30;95.80
19007;DHT22;9636;47.382;8.480;2024-01-30T12:54:37;17.30;95.40
19007;DHT22;9636;47.382;8.480;2024-01-30T12:57:04;17.40;94.80
19007;DHT22;9636;47.382;8.480;2024-01-30T12:59:31;17.10;93.70
19007;DHT22;9636;47.382;8.480;2024-01-30T13:02:00;17.30;95.30
19007;DHT22;9636;47.382;8.480;2024-01-30T13:04:27;17.70;95.10
19007;DHT22;9636;47.382;8.480;2024-01-30T13:06:54;17.50;94.40
19007;DHT22;9636;47.382;8.480;2024-01-30T13:09:21;17.20;94.10
19007;DHT22;9636;47.382;8.480;2024-01-30T13:11:49;17.20;95.20
19007;DHT22;9636;47.382;8.480;2024-01-30T13:14:16;17.00;94.00
19007;DHT22;9636;47.382;8.480;2024-01-30T13:16:43;17.40;94.60
19007;DHT22;9636;47.382;8.480;2024-01-30T13:19:11;17.20;93.80
19007;DHT22;9636;47.382;8.480;2024-01-30T13:21:38;17.20;94.30
19007;DHT22;9636;47.382;8.480;2024-01-30T13:24:05;17.20;94.10
19007;DHT22;9636;47.382;8.480;2024-01-30T13:26:33;17.20;94.40
19007;DHT22;9636;47.382;8.480;2024-01-30T13:29:00;17.00;93.80
19007;DHT22;9636;47.382;8.480;2024-01-30T13:31:27;17.50;93.80
19007;DHT22;9636;47.382;8.480;2024-01-30T13:33:53;17.80;93.60
19007;DHT22;9636;47.382;8.480;2024-01-30T13:36:22;17.90;93.30
19007;DHT22;9636;47.382;8.480;2024-01-30T13:38:49;17.90;93.10
19007;DHT22;9636;47.382;8.480;2024-01-30T13:41:16;17.60;92.10
19007;DHT22;9636;47.382;8.480;2024-01-30T13:43:43;17.60;91.90
19007;DHT22;9636;47.382;8.480;2024-01-30T13:46:10;17.60;92.30
19007;DHT22;9636;47.382;8.480;2024-01-30T13:48:37;17.30;92.50
19007;DHT22;9636;47.382;8.480;2024-01-30T13:51:04;17.00;93.10
19007;DHT22;9636;47.382;8.480;2024-01-30T13:53:32;16.40;93.40
19007;DHT22;9636;47.382;8.480;2024-01-30T13:55:59;16.10;94.40
19007;DHT22;9636;47.382;8.480;2024-01-30T13:58:26;16.00;94.10
19007;DHT22;9636;47.382;8.480;2024-01-30T14:00:53;16.10;94.70
19007;DHT22;9636;47.382;8.480;2024-01-30T14:03:20;16.20;94.80
19007;DHT22;9636;47.382;8.480;2024-01-30T14:05:47;16.00;94.40
19007;DHT22;9636;47.382;8.480;2024-01-30T14:08:14;16.20;94.40
19007;DHT22;9636;47.382;8.480;2024-01-30T14:10:43;16.10;94.20
19007;DHT22;9636;47.382;8.480;2024-01-30T14:13:09;15.90;95.10
19007;DHT22;9636;47.382;8.480;2024-01-30T14:15:37;15.80;94.60
19007;DHT22;9636;47.382;8.480;2024-01-30T14:18:04;15.80;95.00
19007;DHT22;9636;47.382;8.480;2024-01-30T14:20:33;15.70;94.60
19007;DHT22;9636;47.382;8.480;2024-01-30T14:23:00;15.50;94.50
19007;DHT22;9636;47.382;8.480;2024-01-30T14:25:27;15.20;94.60
19007;DHT22;9636;47.382;8.480;2024-01-30T14:27:55;15.20;95.90
19007;DHT22;9636;47.382;8.480;2024-01-30T14:30:22;15.10;94.80
19007;DHT22;9636;47.382;8.480;2024-01-30T14:32:49;14.90;95.10
19007;DHT22;9636;47.382;8.480;2024-01-30T14:35:16;14.80;95.10
19007;DHT22;9636;47.382;8.480;2024-01-30T14:37:43;14.70;95.50
19007;DHT22;9636;47.382;8.480;2024-01-30T14:40:10;14.80;96.20
19007;DHT22;9636;47.382;8.480;2024-01-30T14:42:37;14.70;96.20
19007;DHT22;9636;47.382;8.480;2024-01-30T14:45:06;14.50;95.70
19007;DHT22;9636;47.382;8.480;2024-01-30T14:47:33;14.30;96.00
19007;DHT22;9636;47.382;8.480;2024-01-30T14:50:00;14.10;95.90
19007;DHT22;9636;47.382;8.480;2024-01-30T14:52:28;13.90;96.40
19007;DHT22;9636;47.382;8.480;2024-01-30T14:54:54;14.00;97.00
19007;DHT22;9636;47.382;8.480;2024-01-30T14:57:21;14.00;96.60
19007;DHT22;9636;47.382;8.480;2024-01-30T14:59:48;14.10;97.30
19007;DHT22;9636;47.382;8.480;2024-01-30T15:02:16;14.20;97.00
19007;DHT22;9636;47.382;8.480;2024-01-30T15:04:43;14.10;96.10
19007;DHT22;9636;47.382;8.480;2024-01-30T15:07:10;14.00;96.60
19007;DHT22;9636;47.382;8.480;2024-01-30T15:09:36;14.00;96.80
19007;DHT22;9636;47.382;8.480;2024-01-30T15:12:04;14.00;97.80
19007;DHT22;9636;47.382;8.480;2024-01-30T15:14:31;14.00;97.60
19007;DHT22;9636;47.382;8.480;2024-01-30T15:16:57;14.00;97.10
19007;DHT22;9636;47.382;8.480;2024-01-30T15:19:26;14.20;96.70
19007;DHT22;9636;47.382;8.480;2024-01-30T15:21:53;14.20;96.70
19007;DHT22;9636;47.382;8.480;2024-01-30T15:24:20;14.00;97.10
19007;DHT22;9636;47.382;8.480;2024-01-30T15:26:49;13.80;97.00
19007;DHT22;9636;47.382;8.480;2024-01-30T15:29:16;13.90;97.40
19007;DHT22;9636;47.382;8.480;2024-01-30T15:31:43;13.70;98.30
19007;DHT22;9636;47.382;8.480;2024-01-30T15:34:10;13.60;99.20
19007;DHT22;9636;47.382;8.480;2024-01-30T15:36:38;13.50;99.40
19007;DHT22;9636;47.382;8.480;2024-01-30T15:39:05;13.50;99.10
19007;DHT22;9636;47.382;8.480;2024-01-30T15:41:32;13.40;99.50
19007;DHT22;9636;47.382;8.480;2024-01-30T15:43:59;13.50;99.50
19007;DHT22;9636;47.382;8.480;2024-01-30T15:46:27;13.40;99.90
19007;DHT22;9636;47.382;8.480;2024-01-30T15:48:54;13.20;99.90
19007;DHT22;9636;47.382;8.480;2024-01-30T15:51:21;13.20;99.90
19007;DHT22;9636;47.382;8.480;2024-01-30T15:53:50;13.00;99.90
19007;DHT22;9636;47.382;8.480;2024-01-30T15:56:17;12.90;99.90
19007;DHT22;9636;47.382;8.480;2024-01-30T15:58:44;12.90;99.90
19007;DHT22;9636;47.382;8.480;2024-01-30T16:01:15;12.60;99.90
19007;DHT22;9636;47.382;8.480;2024-01-30T16:03:41;12.40;99.90
19007;DHT22;9636;47.382;8.480;2024-01-30T16:06:10;12.30;99.90
19007;DHT22;9636;47.382;8.480;2024-01-30T16:08:37;12.30;99.90